createdAt,value
2018-11-10T00:00:02.089Z,97.08
2018-11-10T00:01:00.667Z,96.98
2018-11-10T00:01:59.319Z,96.89
2018-11-10T00:02:57.845Z,97.42
2018-11-10T00:03:56.382Z,97.99
2018-11-10T00:04:55.062Z,97.8
2018-11-10T00:05:53.740Z,97.22
2018-11-10T00:06:52.259Z,97.18
2018-11-10T00:07:50.935Z,97.18
2018-11-10T00:08:49.470Z,96.84
2018-11-10T00:09:48.021Z,96.98
2018-11-10T00:10:46.547Z,96.22
2018-11-10T00:11:45.148Z,96.7
2018-11-10T00:12:43.714Z,96.7
2018-11-10T00:13:42.215Z,96.8
2018-11-10T00:14:40.755Z,96.94
2018-11-10T00:15:39.267Z,96.75
2018-11-10T00:16:37.887Z,97.22
2018-11-10T00:17:36.329Z,97.32
2018-11-10T00:18:34.933Z,97.32
2018-11-10T00:19:33.498Z,97.71
2018-11-10T00:20:32.033Z,97.32
2018-11-10T00:21:30.588Z,97.42
2018-11-10T00:22:29.122Z,97.8
2018-11-10T00:23:27.951Z,98.18
2018-11-10T00:24:26.512Z,97.32
2018-11-10T00:25:25.175Z,97.32
2018-11-10T00:26:23.687Z,96.84
2018-11-10T00:27:22.237Z,96.75
2018-11-10T00:28:20.766Z,96.84
2018-11-10T00:30:29.596Z,96.46
2018-11-10T00:31:28.143Z,96.56
2018-11-10T00:32:26.679Z,97.51
2018-11-10T00:33:25.201Z,97.89
2018-11-10T00:34:23.722Z,98.66
2018-11-10T00:35:22.263Z,98.47
2018-11-10T00:36:20.782Z,98.66
2018-11-10T00:37:19.326Z,98.85
2018-11-10T00:38:17.859Z,98.27
2018-11-10T00:39:16.393Z,98.66
2018-11-10T00:40:14.924Z,98.75
2018-11-10T00:41:13.447Z,97.89
2018-11-10T00:42:11.983Z,98.18
2018-11-10T00:43:10.532Z,98.27
2018-11-10T00:44:09.068Z,98.56
2018-11-10T00:45:07.713Z,97.8
2018-11-10T00:46:06.269Z,97.89
2018-11-10T00:47:04.854Z,98.47
2018-11-10T00:48:03.417Z,97.99
2018-11-10T00:49:01.962Z,98.47
2018-11-10T00:50:00.511Z,98.47
2018-11-10T00:50:59.181Z,98.85
2018-11-10T00:51:57.712Z,98.56
2018-11-10T00:52:56.245Z,98.66
2018-11-10T00:53:54.828Z,98.47
2018-11-10T00:54:53.403Z,97.99
2018-11-10T00:55:51.950Z,97.89
2018-11-10T00:56:50.503Z,97.89
2018-11-10T00:57:49.157Z,97.99
2018-11-10T00:58:47.674Z,97.71
2018-11-10T00:59:46.298Z,97.13
2018-11-10T01:00:44.814Z,96.84
2018-11-10T01:01:43.358Z,96.75
2018-11-10T01:02:41.867Z,96.37
2018-11-10T01:03:40.440Z,95.89
2018-11-10T01:04:39.009Z,96.17
2018-11-10T01:05:37.562Z,96.27
2018-11-10T01:06:36.092Z,95.98
2018-11-10T01:07:34.575Z,96.17
2018-11-10T01:08:33.343Z,96.08
2018-11-10T01:09:31.879Z,96.08
2018-11-10T01:10:30.397Z,96.17
2018-11-10T01:11:29.246Z,95.89
2018-11-10T01:12:27.854Z,95.98
2018-11-10T01:13:26.377Z,96.37
2018-11-10T01:14:24.890Z,96.17
2018-11-10T01:15:23.460Z,95.89
2018-11-10T01:16:22.009Z,96.37
2018-11-10T01:17:20.524Z,96.17
2018-11-10T01:18:19.057Z,96.46
2018-11-10T01:19:17.579Z,96.66
2018-11-10T01:20:16.100Z,96.37
2018-11-10T01:21:14.628Z,95.89
2018-11-10T01:22:13.179Z,95.89
2018-11-10T01:23:11.705Z,96.27
2018-11-10T01:24:10.241Z,96.66
2018-11-10T01:25:08.774Z,96.17
2018-11-10T01:26:07.283Z,96.27
2018-11-10T01:27:05.812Z,95.32
2018-11-10T01:28:04.464Z,95.12
2018-11-10T01:29:02.896Z,95.61
2018-11-10T01:30:01.584Z,95.61
2018-11-10T01:31:00.143Z,95.79
2018-11-10T01:31:58.718Z,95.32
2018-11-10T01:32:57.262Z,95.22
2018-11-10T01:33:55.784Z,95.41
2018-11-10T01:34:54.308Z,95.22
2018-11-10T01:35:52.924Z,95.32
2018-11-10T01:36:51.585Z,95.41
2018-11-10T01:37:50.131Z,95.12
2018-11-10T01:38:48.647Z,95.22
2018-11-10T01:39:47.219Z,95.41
2018-11-10T01:40:45.759Z,95.03
2018-11-10T01:42:53.605Z,95.32
2018-11-10T01:43:52.109Z,94.93
2018-11-10T01:44:50.616Z,94.84
2018-11-10T01:45:49.203Z,95.12
2018-11-10T01:46:47.760Z,94.7
2018-11-10T01:47:46.300Z,94.74
2018-11-10T01:48:44.830Z,94.17
2018-11-10T01:49:43.356Z,94.17
2018-11-10T01:50:41.875Z,94.22
2018-11-10T01:51:40.452Z,94.31
2018-11-10T01:52:38.983Z,94.17
2018-11-10T01:53:37.489Z,93.55
2018-11-10T01:54:36.039Z,93.93
2018-11-10T01:55:34.585Z,93.88
2018-11-10T01:56:33.092Z,93.84
2018-11-10T01:57:31.712Z,94.22
2018-11-10T01:58:30.283Z,93.7
2018-11-10T01:59:28.958Z,93.7
2018-11-10T02:00:27.582Z,94.46
2018-11-10T02:01:26.099Z,94.46
2018-11-10T02:02:24.720Z,93.88
2018-11-10T02:03:23.303Z,93.79
2018-11-10T02:04:21.869Z,94.07
2018-11-10T02:05:20.445Z,93.98
2018-11-10T02:06:18.991Z,93.98
2018-11-10T02:07:17.519Z,93.88
2018-11-10T02:08:16.025Z,93.88
2018-11-10T02:09:14.526Z,93.7
2018-11-10T02:10:13.094Z,93.7
2018-11-10T02:11:11.754Z,93.6
2018-11-10T02:12:10.255Z,93.98
2018-11-10T02:13:08.777Z,93.7
2018-11-10T02:14:07.382Z,93.88
2018-11-10T02:15:05.861Z,93.88
2018-11-10T02:16:04.395Z,93.6
2018-11-10T02:17:02.937Z,93.98
2018-11-10T02:18:01.451Z,93.88
2018-11-10T02:18:59.999Z,93.88
2018-11-10T02:19:58.527Z,93.98
2018-11-10T02:20:57.100Z,93.12
2018-11-10T02:21:55.763Z,93.22
2018-11-10T02:22:54.270Z,93.31
2018-11-10T02:23:52.814Z,93.02
2018-11-10T02:24:51.447Z,93.31
2018-11-10T02:25:49.979Z,92.88
2018-11-10T02:26:48.512Z,92.97
2018-11-10T02:27:47.335Z,93.17
2018-11-10T02:28:45.849Z,93.02
2018-11-10T02:29:44.360Z,93.55
2018-11-10T02:30:43.024Z,93.26
2018-11-10T02:31:41.551Z,93.17
2018-11-10T02:32:40.070Z,92.69
2018-11-10T02:33:38.586Z,92.88
2018-11-10T02:34:37.104Z,92.88
2018-11-10T02:35:35.736Z,92.02
2018-11-10T02:36:34.252Z,92.31
2018-11-10T02:37:32.802Z,92.31
2018-11-10T02:38:31.337Z,91.93
2018-11-10T02:39:29.840Z,92.02
2018-11-10T02:40:28.353Z,91.83
2018-11-10T02:41:26.875Z,92.02
2018-11-10T02:42:25.400Z,91.64
2018-11-10T02:43:23.925Z,91.74
2018-11-10T02:44:22.446Z,92.31
2018-11-10T02:45:21.166Z,92.5
2018-11-10T02:46:19.723Z,92.41
2018-11-10T02:47:18.278Z,92.31
2018-11-10T02:48:16.794Z,92.12
2018-11-10T02:49:15.365Z,92.31
2018-11-10T02:50:13.972Z,91.93
2018-11-10T02:51:12.510Z,91.93
2018-11-10T02:52:11.135Z,91.74
2018-11-10T02:53:09.685Z,92.02
2018-11-10T02:54:08.210Z,91.55
2018-11-10T02:55:06.761Z,92.12
2018-11-10T02:56:05.436Z,92.31
2018-11-10T02:57:04.008Z,92.02
2018-11-10T02:58:02.541Z,92.79
2018-11-10T02:59:01.055Z,92.31
2018-11-10T02:59:59.582Z,92.31
2018-11-10T03:00:58.112Z,92.31
2018-11-10T03:01:56.642Z,92.41
2018-11-10T03:02:55.156Z,92.5
2018-11-10T03:03:53.687Z,92.79
2018-11-10T03:04:52.233Z,92.31
2018-11-10T03:05:50.754Z,92.21
2018-11-10T03:06:49.278Z,92.12
2018-11-10T03:07:47.784Z,92.31
2018-11-10T03:08:46.356Z,92.88
2018-11-10T03:09:44.869Z,92.88
2018-11-10T03:10:43.477Z,92.21
2018-11-10T03:11:41.935Z,92.02
2018-11-10T03:12:40.451Z,92.88
2018-11-10T03:13:38.987Z,92.97
2018-11-10T03:14:37.680Z,92.88
2018-11-10T03:15:36.205Z,93.07
2018-11-10T03:16:34.950Z,92.88
2018-11-10T03:17:33.663Z,92.31
2018-11-10T03:18:32.209Z,92.6
2018-11-10T03:19:30.707Z,92.12
2018-11-10T03:20:29.349Z,92.12
2018-11-10T03:21:27.951Z,92.6
2018-11-10T03:22:26.475Z,91.93
2018-11-10T03:23:25.016Z,91.83
2018-11-10T03:24:23.531Z,91.74
2018-11-10T03:25:22.133Z,91.45
2018-11-10T03:26:20.671Z,91.55
2018-11-10T03:27:19.306Z,91.83
2018-11-10T03:28:17.827Z,92.12
2018-11-10T03:29:16.355Z,91.93
2018-11-10T03:30:14.991Z,91.64
2018-11-10T03:31:13.563Z,91.07
2018-11-10T03:32:12.102Z,91.16
2018-11-10T03:33:10.616Z,91.16
2018-11-10T03:34:09.238Z,91.45
2018-11-10T03:35:07.818Z,90.78
2018-11-10T03:36:06.330Z,90.69
2018-11-10T03:37:05.004Z,91.16
2018-11-10T03:38:03.626Z,90.78
2018-11-10T03:39:02.152Z,90.78
2018-11-10T03:40:00.677Z,90.97
2018-11-10T03:40:59.255Z,90.59
2018-11-10T03:41:57.803Z,90.59
2018-11-10T03:42:56.331Z,90.21
2018-11-10T03:43:54.841Z,90.02
2018-11-10T03:44:53.375Z,89.83
2018-11-10T03:45:51.903Z,90.4
2018-11-10T03:46:50.427Z,90.69
2018-11-10T03:47:48.986Z,90.78
2018-11-10T03:48:47.598Z,90.69
2018-11-10T03:49:46.043Z,89.92
2018-11-10T03:50:44.574Z,90.69
2018-11-10T03:51:43.085Z,90.5
2018-11-10T03:52:41.608Z,90.69
2018-11-10T03:53:40.128Z,91.16
2018-11-10T03:54:38.666Z,90.59
2018-11-10T03:55:37.231Z,90.97
2018-11-10T03:56:35.768Z,90.88
2018-11-10T03:57:34.291Z,90.88
2018-11-10T03:58:33.018Z,90.78
2018-11-10T03:59:31.596Z,91.64
2018-11-10T04:00:30.120Z,91.16
2018-11-10T04:01:28.628Z,91.36
2018-11-10T04:02:27.175Z,90.69
2018-11-10T04:03:25.793Z,90.69
2018-11-10T04:04:24.313Z,90.97
2018-11-10T04:05:22.852Z,90.54
2018-11-10T04:06:21.478Z,90.59
2018-11-10T04:07:20.011Z,90.69
2018-11-10T04:08:18.546Z,90.59
2018-11-10T04:09:17.107Z,90.69
2018-11-10T04:10:15.663Z,90.97
2018-11-10T04:11:14.187Z,91.26
2018-11-10T04:12:12.712Z,90.97
2018-11-10T04:13:11.277Z,90.97
2018-11-10T04:14:09.862Z,90.59
2018-11-10T04:15:08.394Z,90.4
2018-11-10T04:17:42.296Z,91.07
2018-11-10T04:18:40.829Z,90.97
2018-11-10T04:19:39.364Z,90.88
2018-11-10T04:20:38.007Z,90.59
2018-11-10T04:21:36.547Z,90.59
2018-11-10T04:22:35.099Z,91.55
2018-11-10T04:23:33.615Z,91.16
2018-11-10T04:24:32.124Z,91.07
2018-11-10T04:25:30.670Z,91.36
2018-11-10T04:28:11.060Z,92.02
2018-11-10T04:29:09.646Z,91.45
2018-11-10T04:30:08.193Z,91.26
2018-11-10T04:31:06.714Z,91.36
2018-11-10T04:32:05.473Z,91.16
2018-11-10T04:33:04.009Z,91.59
2018-11-10T04:34:02.516Z,90.59
2018-11-10T04:35:01.070Z,90.78
2018-11-10T04:35:59.678Z,91.45
2018-11-10T04:36:58.197Z,91.74
2018-11-10T04:37:56.740Z,91.26
2018-11-10T04:38:55.244Z,91.45
2018-11-10T04:39:53.769Z,91.55
2018-11-10T04:40:52.293Z,90.78
2018-11-10T04:41:50.829Z,90.78
2018-11-10T04:42:49.361Z,90.78
2018-11-10T04:43:47.889Z,90.97
2018-11-10T04:44:46.402Z,90.88
2018-11-10T04:45:44.948Z,91.07
2018-11-10T04:46:43.480Z,90.78
2018-11-10T04:47:42.012Z,90.97
2018-11-10T04:48:40.529Z,90.59
2018-11-10T04:49:39.133Z,90.59
2018-11-10T04:50:37.643Z,90.59
2018-11-10T04:51:36.184Z,90.59
2018-11-10T04:52:34.710Z,89.83
2018-11-10T04:53:33.503Z,90.21
2018-11-10T04:54:32.068Z,90.11
2018-11-10T04:55:30.588Z,90.11
2018-11-10T04:56:29.288Z,90.97
2018-11-10T04:57:27.825Z,90.31
2018-11-10T04:58:26.360Z,90.59
2018-11-10T04:59:24.872Z,90.78
2018-11-10T05:00:23.552Z,90.59
2018-11-10T05:01:22.118Z,90.59
2018-11-10T05:02:20.609Z,90.5
2018-11-10T05:03:19.212Z,90.4
2018-11-10T05:04:17.767Z,90.64
2018-11-10T05:05:16.325Z,90.35
2018-11-10T05:06:14.847Z,89.97
2018-11-10T05:07:13.381Z,90.31
2018-11-10T05:08:11.901Z,89.97
2018-11-10T05:09:10.440Z,90.4
2018-11-10T05:10:08.954Z,90.59
2018-11-10T05:11:07.509Z,91.07
2018-11-10T05:12:06.024Z,91.45
2018-11-10T05:13:04.539Z,91.83
2018-11-10T05:14:03.222Z,91.74
2018-11-10T05:15:01.786Z,92.21
2018-11-10T05:16:00.320Z,92.12
2018-11-10T05:16:58.852Z,92.02
2018-11-10T05:17:57.398Z,91.83
2018-11-10T05:18:55.943Z,91.83
2018-11-10T05:19:54.488Z,91.83
2018-11-10T05:20:53.298Z,91.74
2018-11-10T05:21:51.895Z,91.74
2018-11-10T05:22:50.425Z,91.16
2018-11-10T05:23:48.958Z,91.45
2018-11-10T05:24:47.544Z,92.02
2018-11-10T05:25:46.068Z,91.55
2018-11-10T05:26:44.587Z,91.83
2018-11-10T05:27:43.125Z,91.93
2018-11-10T05:28:41.656Z,91.93
2018-11-10T05:29:40.217Z,91.36
2018-11-10T05:30:38.731Z,91.55
2018-11-10T05:31:37.269Z,91.83
2018-11-10T05:32:35.795Z,91.07
2018-11-10T05:33:34.344Z,91.07
2018-11-10T05:34:32.907Z,91.36
2018-11-10T05:35:31.471Z,91.45
2018-11-10T05:36:30.017Z,91.26
2018-11-10T05:37:28.549Z,91.64
2018-11-10T05:38:34.328Z,90.78
2018-11-10T05:39:32.945Z,90.69
2018-11-10T05:40:31.644Z,91.45
2018-11-10T05:41:30.176Z,90.78
2018-11-10T05:42:28.740Z,90.88
2018-11-10T05:43:27.270Z,90.78
2018-11-10T05:44:25.796Z,90.97
2018-11-10T05:45:24.381Z,90.97
2018-11-10T05:46:22.901Z,91.36
2018-11-10T05:47:21.423Z,90.78
2018-11-10T05:48:19.971Z,90.78
2018-11-10T05:49:18.517Z,90.69
2018-11-10T05:50:17.118Z,90.78
2018-11-10T05:51:15.741Z,90.69
2018-11-10T05:52:14.264Z,90.69
2018-11-10T05:54:54.402Z,90.69
2018-11-10T05:55:52.927Z,90.97
2018-11-10T05:56:51.690Z,91.16
2018-11-10T05:57:50.228Z,90.97
2018-11-10T05:58:48.751Z,90.97
2018-11-10T05:59:47.392Z,91.07
2018-11-10T06:00:45.952Z,90.78
2018-11-10T06:01:44.480Z,91.36
2018-11-10T06:02:43.005Z,90.83
2018-11-10T06:03:41.521Z,90.59
2018-11-10T06:04:40.031Z,90.88
2018-11-10T06:05:38.593Z,90.54
2018-11-10T06:06:37.109Z,90.78
2018-11-10T06:07:35.625Z,90.97
2018-11-10T06:08:34.170Z,90.97
2018-11-10T06:09:32.873Z,90.69
2018-11-10T06:10:31.512Z,90.54
2018-11-10T06:11:30.043Z,90.83
2018-11-10T06:12:28.572Z,90.64
2018-11-10T06:13:27.173Z,90.83
2018-11-10T06:14:25.808Z,91.11
2018-11-10T06:15:24.306Z,90.92
2018-11-10T06:16:22.921Z,91.02
2018-11-10T06:17:21.464Z,90.92
2018-11-10T06:18:19.998Z,91.11
2018-11-10T06:19:18.548Z,91.69
2018-11-10T06:20:17.227Z,91.3
2018-11-10T06:21:15.822Z,90.83
2018-11-10T06:22:14.369Z,91.02
2018-11-10T06:23:12.888Z,91.11
2018-11-10T06:24:11.422Z,90.83
2018-11-10T06:26:51.703Z,91.69
2018-11-10T06:27:50.222Z,91.21
2018-11-10T06:28:48.781Z,91.69
2018-11-10T06:29:47.418Z,90.83
2018-11-10T06:30:45.969Z,90.92
2018-11-10T06:31:44.486Z,90.64
2018-11-10T06:32:43.148Z,91.26
2018-11-10T06:33:41.782Z,91.5
2018-11-10T06:34:40.311Z,91.3
2018-11-10T06:35:38.848Z,91.59
2018-11-10T06:36:37.502Z,91.59
2018-11-10T06:37:36.023Z,91.21
2018-11-10T06:38:34.579Z,91.59
2018-11-10T06:39:33.075Z,90.73
2018-11-10T06:40:31.599Z,91.02
2018-11-10T06:41:30.320Z,90.92
2018-11-10T06:42:28.686Z,90.83
2018-11-10T06:43:27.215Z,91.02
2018-11-10T06:47:32.040Z,90.25
2018-11-10T06:48:30.548Z,91.02
2018-11-10T06:49:29.286Z,90.83
2018-11-10T06:50:27.827Z,90.73
2018-11-10T06:51:26.370Z,90.64
2018-11-10T06:52:24.950Z,90.73
2018-11-10T06:56:03.961Z,90.73
2018-11-10T06:57:02.588Z,91.11
2018-11-10T06:58:01.079Z,90.83
2018-11-10T06:58:59.851Z,91.02
2018-11-10T06:59:58.338Z,91.21
2018-11-10T07:00:56.983Z,91.02
2018-11-10T07:01:55.780Z,90.73
2018-11-10T07:02:54.396Z,91.21
2018-11-10T07:03:52.950Z,91.21
2018-11-10T07:04:51.497Z,91.78
2018-11-10T07:05:50.079Z,90.92
2018-11-10T07:06:48.637Z,91.3
2018-11-10T07:07:47.204Z,90.83
2018-11-10T07:08:45.774Z,90.45
2018-11-10T07:09:44.407Z,90.35
2018-11-10T07:10:43.062Z,90.83
2018-11-10T07:11:41.702Z,90.88
2018-11-10T07:12:40.264Z,90.73
2018-11-10T07:13:38.978Z,89.97
2018-11-10T07:14:37.610Z,90.64
2018-11-10T07:15:36.129Z,90.68
2018-11-10T07:16:34.705Z,90.3
2018-11-10T07:17:33.241Z,90.39
2018-11-10T07:18:31.779Z,89.82
2018-11-10T07:19:30.318Z,89.87
2018-11-10T07:20:28.844Z,90.35
2018-11-10T07:21:27.394Z,90.45
2018-11-10T07:22:25.911Z,90.64
2018-11-10T07:23:24.406Z,90.73
2018-11-10T07:24:22.986Z,90.25
2018-11-10T07:25:21.537Z,90.35
2018-11-10T07:26:20.061Z,90.68
2018-11-10T07:27:18.602Z,90.59
2018-11-10T07:28:17.158Z,90.2
2018-11-10T07:29:15.826Z,90.3
2018-11-10T07:30:14.388Z,90.3
2018-11-10T07:31:13.067Z,89.92
2018-11-10T07:32:11.657Z,90.01
2018-11-10T07:33:10.199Z,90.11
2018-11-10T07:34:08.743Z,89.92
2018-11-10T07:35:07.356Z,90.39
2018-11-10T07:36:05.883Z,90.2
2018-11-10T07:37:04.462Z,89.92
2018-11-10T07:38:02.998Z,89.73
2018-11-10T07:39:01.638Z,90.49
2018-11-10T07:40:00.180Z,90.3
2018-11-10T07:42:40.530Z,90.01
2018-11-10T07:43:39.164Z,90.2
2018-11-10T07:44:37.770Z,90.2
2018-11-10T07:45:36.304Z,89.92
2018-11-10T07:46:35.039Z,89.92
2018-11-10T07:47:33.694Z,90.2
2018-11-10T07:48:32.210Z,90.2
2018-11-10T07:49:30.765Z,90.2
2018-11-10T07:50:29.257Z,90.16
2018-11-10T07:51:27.790Z,89.77
2018-11-10T07:52:26.294Z,89.53
2018-11-10T07:53:24.829Z,89.77
2018-11-10T07:54:23.393Z,89.73
2018-11-10T07:55:21.885Z,89.82
2018-11-10T07:56:20.417Z,89.44
2018-11-10T07:57:18.950Z,89.1
2018-11-10T07:58:17.507Z,88.62
2018-11-10T07:59:16.075Z,89.39
2018-11-10T08:00:14.611Z,89.1
2018-11-10T08:01:13.174Z,89.34
2018-11-10T08:02:11.767Z,88.91
2018-11-10T08:03:10.304Z,89.01
2018-11-10T08:04:08.945Z,89.01
2018-11-10T08:05:07.548Z,89.29
2018-11-10T08:06:06.099Z,88.62
2018-11-10T08:07:04.623Z,88.43
2018-11-10T08:08:03.306Z,89.2
2018-11-10T08:09:01.843Z,88.91
2018-11-10T08:10:00.432Z,89.1
2018-11-10T08:10:58.988Z,89.1
2018-11-10T08:11:57.673Z,89.01
2018-11-10T08:12:56.175Z,89.01
2018-11-10T08:13:54.687Z,89.25
2018-11-10T08:14:53.266Z,88.91
2018-11-10T08:15:51.817Z,89.01
2018-11-10T08:19:30.358Z,88.91
2018-11-10T08:20:28.964Z,89.29
2018-11-10T08:21:27.556Z,89.06
2018-11-10T08:22:26.099Z,88.53
2018-11-10T08:23:24.678Z,88.53
2018-11-10T08:24:23.304Z,88.53
2018-11-10T08:25:21.982Z,89.1
2018-11-10T08:26:20.475Z,89.39
2018-11-10T08:27:19.158Z,88.53
2018-11-10T08:28:17.780Z,89.2
2018-11-10T08:29:16.315Z,88.91
2018-11-10T08:30:14.876Z,89.29
2018-11-10T08:31:13.582Z,88.91
2018-11-10T08:32:11.962Z,88.43
2018-11-10T08:33:10.472Z,88.53
2018-11-10T08:34:08.991Z,87.66
2018-11-10T08:35:07.539Z,87.48
2018-11-10T08:36:06.068Z,88.24
2018-11-10T08:37:04.621Z,88.15
2018-11-10T08:38:03.226Z,88.34
2018-11-10T08:39:01.911Z,87.38
2018-11-10T08:40:00.422Z,87.43
2018-11-10T08:40:58.984Z,87.33
2018-11-10T08:41:57.788Z,87.43
2018-11-10T08:45:36.431Z,86.76
2018-11-10T08:46:35.001Z,86.76
2018-11-10T08:47:33.523Z,86.66
2018-11-10T08:48:32.105Z,86.57
2018-11-10T08:49:30.656Z,86.37
2018-11-10T08:50:29.177Z,86.28
2018-11-10T08:51:27.703Z,85.61
2018-11-10T08:52:26.232Z,85.8
2018-11-10T08:53:24.784Z,85.89
2018-11-10T08:54:23.289Z,85.71
2018-11-10T08:55:21.812Z,85.61
2018-11-10T08:56:20.406Z,86.08
2018-11-10T08:57:19.087Z,85.51
2018-11-10T08:58:17.726Z,85.71
2018-11-10T08:59:16.396Z,86.08
2018-11-10T09:00:14.888Z,85.94
2018-11-10T09:01:13.635Z,85.75
2018-11-10T09:03:53.674Z,86.04
2018-11-10T09:04:52.212Z,85.75
2018-11-10T09:05:50.734Z,85.94
2018-11-10T09:06:49.297Z,86.32
2018-11-10T09:07:47.849Z,86.13
2018-11-10T09:08:46.377Z,86.7
2018-11-10T09:09:45.223Z,86.76
2018-11-10T09:10:43.782Z,86.8
2018-11-10T09:11:42.322Z,86.61
2018-11-10T09:12:40.854Z,85.94
2018-11-10T09:13:39.704Z,85.65
2018-11-10T09:14:38.214Z,85.8
2018-11-10T09:15:36.814Z,85.75
2018-11-10T09:16:35.372Z,85.55
2018-11-10T09:17:33.987Z,86.13
2018-11-10T09:18:32.484Z,85.55
2018-11-10T09:19:31.027Z,85.94
2018-11-10T09:20:29.549Z,85.84
2018-11-10T09:21:28.259Z,85.75
2018-11-10T09:22:26.591Z,85.17
2018-11-10T09:23:25.104Z,85.65
2018-11-10T09:24:23.631Z,85.27
2018-11-10T09:25:22.206Z,84.88
2018-11-10T09:26:20.741Z,85.17
2018-11-10T09:27:19.275Z,84.83
2018-11-10T09:28:17.814Z,84.88
2018-11-10T09:29:16.349Z,85.08
2018-11-10T09:30:14.880Z,85.69
2018-11-10T09:31:13.578Z,85.36
2018-11-10T09:32:12.125Z,85.36
2018-11-10T09:33:10.677Z,85.5
2018-11-10T09:34:09.181Z,84.83
2018-11-10T09:36:49.592Z,84.64
2018-11-10T09:37:48.138Z,84.83
2018-11-10T09:38:46.630Z,84.92
2018-11-10T09:39:45.446Z,85.21
2018-11-10T09:40:43.985Z,83.97
2018-11-10T09:41:42.531Z,84.35
2018-11-10T09:42:41.391Z,83.97
2018-11-10T09:43:39.801Z,84.35
2018-11-10T09:44:38.373Z,84.55
2018-11-10T09:45:36.897Z,83.97
2018-11-10T09:46:35.574Z,84.06
2018-11-10T09:47:34.175Z,84.06
2018-11-10T09:48:32.703Z,84.26
2018-11-10T09:49:31.363Z,83.97
2018-11-10T09:50:29.917Z,84.06
2018-11-10T09:51:28.534Z,84.74
2018-11-10T09:52:27.016Z,84.16
2018-11-10T09:53:25.632Z,84.35
2018-11-10T09:54:24.191Z,84.26
2018-11-10T09:55:22.729Z,85.02
2018-11-10T09:56:21.595Z,84.26
2018-11-10T09:57:20.126Z,83.87
2018-11-10T09:58:18.639Z,84.45
2018-11-10T09:59:17.231Z,83.78
2018-11-10T10:00:15.882Z,84.06
2018-11-10T10:01:14.543Z,84.35
2018-11-10T10:02:13.429Z,83.68
2018-11-10T10:05:34.420Z,83.87
2018-11-10T10:06:33.026Z,84.64
2018-11-10T10:07:31.593Z,83.78
2018-11-10T10:08:30.102Z,84.55
2018-11-10T10:09:29.405Z,83.97
2018-11-10T10:10:27.573Z,83.78
2018-11-10T10:11:26.187Z,84.26
2018-11-10T10:12:25.122Z,83.78
2018-11-10T10:13:23.965Z,83.97
2018-11-10T10:14:22.570Z,83.87
2018-11-10T10:18:01.569Z,84.35
2018-11-10T10:19:00.146Z,84.74
2018-11-10T10:19:58.659Z,84.55
2018-11-10T10:20:57.399Z,85.12
2018-11-10T10:21:56.007Z,84.16
2018-11-10T10:22:54.568Z,84.26
2018-11-10T10:23:53.087Z,85.02
2018-11-10T10:24:51.692Z,84.92
2018-11-10T10:25:50.279Z,84.74
2018-11-10T10:26:48.862Z,84.55
2018-11-10T10:27:47.405Z,84.26
2018-11-10T10:28:45.951Z,84.55
2018-11-10T10:29:44.439Z,84.45
2018-11-10T10:30:42.972Z,83.49
2018-11-10T10:31:41.717Z,83.49
2018-11-10T10:32:40.274Z,83.72
2018-11-10T10:33:38.805Z,83.53
2018-11-10T10:34:37.760Z,83.68
2018-11-10T10:35:36.361Z,83.87
2018-11-10T10:36:34.629Z,83.97
2018-11-10T10:37:33.322Z,83.63
2018-11-10T10:38:32.609Z,84.39
2018-11-10T10:42:15.485Z,83.82
2018-11-10T10:43:14.059Z,84.3
2018-11-10T10:44:12.830Z,83.92
2018-11-10T10:45:11.621Z,84.2
2018-11-10T10:46:10.223Z,83.97
2018-11-10T10:47:08.757Z,83.82
2018-11-10T10:48:07.364Z,83.63
2018-11-10T10:49:05.954Z,82.86
2018-11-10T10:50:04.415Z,83.34
2018-11-10T10:51:03.051Z,83.44
2018-11-10T10:52:01.576Z,83.05
2018-11-10T10:53:00.175Z,83.15
2018-11-10T10:53:58.924Z,82.86
2018-11-10T10:54:57.569Z,82.38
2018-11-10T10:55:56.141Z,82.57
2018-11-10T10:56:54.746Z,82.67
2018-11-10T10:57:53.302Z,83.15
2018-11-10T10:58:51.919Z,82.57
2018-11-10T11:04:12.786Z,82.86
2018-11-10T11:05:11.531Z,82.76
2018-11-10T11:06:10.059Z,82.67
2018-11-10T11:07:08.632Z,82.96
2018-11-10T11:08:07.156Z,82.38
2018-11-10T11:09:06.012Z,82.09
2018-11-10T11:10:04.723Z,82.38
2018-11-10T11:11:03.360Z,81.81
2018-11-10T11:12:01.931Z,82
2018-11-10T11:13:00.483Z,81.71
2018-11-10T11:13:59.025Z,81.33
2018-11-10T11:14:57.666Z,81.81
2018-11-10T11:15:56.188Z,81.81
2018-11-10T11:16:54.689Z,81.43
2018-11-10T11:17:53.228Z,81.04
2018-11-10T11:18:51.779Z,81.23
2018-11-10T11:19:50.374Z,81.33
2018-11-10T11:20:48.894Z,81.23
2018-11-10T11:21:47.659Z,81.62
2018-11-10T11:22:46.160Z,81.71
2018-11-10T11:23:44.660Z,81.52
2018-11-10T11:24:43.269Z,81.71
2018-11-10T11:25:41.881Z,81.81
2018-11-10T11:26:40.374Z,82.09
2018-11-10T11:29:21.562Z,81.62
2018-11-10T11:30:20.040Z,81.43
2018-11-10T11:31:18.600Z,81.43
2018-11-10T11:32:17.160Z,81.9
2018-11-10T11:33:15.821Z,81.43
2018-11-10T11:34:14.405Z,81.33
2018-11-10T11:35:12.982Z,81.43
2018-11-10T11:36:11.509Z,81.52
2018-11-10T11:37:10.031Z,81.43
2018-11-10T11:57:34.595Z,81.9
2018-11-10T11:58:33.207Z,82.29
2018-11-10T11:59:31.860Z,82.19
2018-11-10T12:00:30.428Z,82.38
2018-11-10T12:01:28.961Z,81.52
2018-11-10T12:02:27.621Z,82.67
2018-11-10T12:03:26.157Z,82.67
2018-11-10T12:04:24.696Z,82.96
2018-11-10T12:05:23.544Z,82.86
2018-11-10T12:06:22.201Z,83.05
2018-11-10T12:07:20.904Z,83.63
2018-11-10T12:08:19.514Z,83.72
2018-11-10T12:09:18.382Z,84.3
2018-11-10T12:10:17.658Z,84.92
2018-11-10T12:11:16.193Z,84.88
2018-11-10T12:12:15.110Z,84.83
2018-11-10T12:13:13.821Z,84.78
2018-11-10T12:14:12.395Z,84.39
2018-11-10T12:15:10.957Z,84.78
2018-11-10T12:17:52.053Z,84.55
2018-11-10T12:18:50.590Z,84.49
2018-11-10T12:19:49.105Z,85.02
2018-11-10T12:20:48.529Z,85.16
2018-11-10T12:21:46.534Z,84.88
2018-11-10T12:22:45.307Z,83.82
2018-11-10T12:23:44.062Z,84.58
2018-11-10T12:24:44.975Z,83.82
2018-11-10T12:25:43.433Z,84.2
2018-11-10T12:26:42.435Z,84.11
2018-11-10T12:27:40.925Z,84.11
2018-11-10T12:28:39.546Z,83.92
2018-11-10T12:29:38.533Z,84.58
2018-11-10T12:30:37.256Z,85.16
2018-11-10T12:31:35.717Z,84.78
2018-11-10T12:32:34.247Z,84.78
2018-11-10T12:33:32.821Z,84.88
2018-11-10T12:34:31.432Z,84.78
2018-11-10T12:35:30.560Z,84.97
2018-11-10T12:36:29.229Z,85.74
2018-11-10T12:37:28.077Z,85.35
2018-11-10T12:38:26.702Z,85.83
2018-11-10T12:39:25.242Z,85.45
2018-11-10T12:42:05.329Z,85.5
2018-11-10T12:43:03.949Z,85.98
2018-11-10T12:44:02.482Z,85.88
2018-11-10T12:45:01.068Z,86.55
2018-11-10T12:46:00.252Z,86.65
2018-11-10T12:47:00.671Z,86.65
2018-11-10T12:47:59.148Z,86.74
2018-11-10T12:48:58.589Z,86.55
2018-11-10T12:49:58.745Z,86.55
2018-11-10T12:50:55.858Z,86.55
2018-11-10T12:51:54.585Z,86.65
2018-11-10T12:52:53.086Z,86.46
2018-11-10T12:53:51.758Z,86.55
2018-11-10T12:55:52.511Z,85.88
2018-11-10T12:56:51.356Z,85.98
2018-11-10T12:57:49.834Z,85.16
2018-11-10T12:58:49.095Z,85.21
2018-11-10T12:59:47.797Z,85.35
2018-11-10T13:00:46.563Z,85.12
2018-11-10T13:01:45.242Z,85.06
2018-11-10T13:02:43.853Z,84.88
2018-11-10T13:03:42.495Z,84.78
2018-11-10T13:04:41.899Z,84.58
2018-11-10T13:05:40.652Z,84.2
2018-11-10T13:06:39.391Z,84.39
2018-11-10T13:07:38.051Z,84.97
2018-11-10T13:08:36.573Z,84.58
2018-11-10T13:09:35.248Z,84.3
2018-11-10T13:10:34.062Z,83.82
2018-11-10T13:11:32.682Z,83.72
2018-11-10T13:12:30.920Z,83.25
2018-11-10T13:13:29.593Z,82.76
2018-11-10T13:14:28.508Z,82.57
2018-11-10T13:15:27.034Z,82.09
2018-11-10T13:16:25.951Z,82
2018-11-10T13:17:24.470Z,82.57
2018-11-10T13:18:23.061Z,82.38
2018-11-10T13:19:21.597Z,82.09
2018-11-10T13:20:20.210Z,81.81
2018-11-10T13:21:18.734Z,82
2018-11-10T13:22:17.274Z,82.29
2018-11-10T13:23:15.804Z,82.96
2018-11-10T13:24:14.650Z,82.48
2018-11-10T13:25:13.154Z,82.76
2018-11-10T13:26:12.551Z,81.81
2018-11-10T13:27:11.160Z,82.38
2018-11-10T13:28:09.897Z,82.67
2018-11-10T13:29:08.673Z,82.38
2018-11-10T13:30:07.102Z,82
2018-11-10T13:31:06.102Z,82.57
2018-11-10T13:32:04.965Z,82.48
2018-11-10T13:33:05.344Z,82.48
2018-11-10T13:34:04.776Z,82.67
2018-11-10T13:35:03.273Z,82.19
2018-11-10T13:36:01.838Z,82.57
2018-11-10T13:37:00.860Z,82.48
2018-11-10T13:37:59.044Z,82.57
2018-11-10T13:38:57.598Z,82.38
2018-11-10T13:39:56.284Z,82.57